createdAt,value
2023-02-15T00:00:21.814Z,100802.09
2023-02-15T00:02:49.333Z,100810.13
2023-02-15T00:05:16.901Z,100807.56
2023-02-15T00:07:44.430Z,100809.00
2023-02-15T00:10:13.033Z,100800.25
2023-02-15T00:12:40.556Z,100813.91
2023-02-15T00:15:08.508Z,100814.41
2023-02-15T00:17:35.923Z,100807.53
2023-02-15T00:20:03.755Z,100813.69
2023-02-15T00:22:31.244Z,100814.91
2023-02-15T00:24:58.718Z,100818.44
2023-02-15T00:27:26.173Z,100818.13
2023-02-15T00:29:53.706Z,100818.22
2023-02-15T00:32:21.195Z,100828.97
2023-02-15T00:34:49.827Z,100825.31
2023-02-15T00:37:17.575Z,100834.78
2023-02-15T00:39:48.248Z,100833.50
2023-02-15T00:42:15.723Z,100831.88
2023-02-15T00:44:43.236Z,100835.91
2023-02-15T00:47:10.640Z,100828.09
2023-02-15T00:49:39.573Z,100816.44
2023-02-15T00:52:07.053Z,100815.53
2023-02-15T00:54:35.719Z,100809.59
2023-02-15T00:57:03.193Z,100810.34
2023-02-15T00:59:30.787Z,100808.22
2023-02-15T01:01:58.494Z,100807.53
2023-02-15T01:04:26.025Z,100812.47
2023-02-15T01:06:53.554Z,100808.13
2023-02-15T01:09:21.149Z,100800.84
2023-02-15T01:11:48.694Z,100803.41
2023-02-15T01:14:16.148Z,100799.84
2023-02-15T01:16:43.602Z,100804.94
2023-02-15T01:19:11.073Z,100802.69
2023-02-15T01:21:41.644Z,100801.88
2023-02-15T01:24:15.550Z,100794.13
2023-02-15T01:26:43.037Z,100800.94
2023-02-15T01:29:10.493Z,100791.44
2023-02-15T01:31:40.170Z,100793.22
2023-02-15T01:34:07.925Z,100800.41
2023-02-15T01:36:36.377Z,100801.94
2023-02-15T01:39:04.039Z,100805.88
2023-02-15T01:41:32.480Z,100807.63
2023-02-15T01:44:04.265Z,100807.84
2023-02-15T01:46:51.406Z,100806.75
2023-02-15T01:49:23.867Z,100815.00
2023-02-15T01:51:53.909Z,100811.97
2023-02-15T01:54:34.994Z,100827.19
2023-02-15T01:57:12.134Z,100809.09
2023-02-15T01:59:43.006Z,100817.84
2023-02-15T02:02:16.506Z,100817.75
2023-02-15T02:04:56.596Z,100816.19
2023-02-15T02:07:30.294Z,100825.09
2023-02-15T02:10:02.358Z,100824.56
2023-02-15T02:12:30.896Z,100827.28
2023-02-15T02:14:59.126Z,100825.84
2023-02-15T02:18:28.176Z,100832.50
2023-02-15T02:21:12.032Z,100828.34
2023-02-15T02:24:18.224Z,100821.63
2023-02-15T02:27:23.876Z,100822.97
2023-02-15T02:54:08.513Z,100839.19
2023-02-15T02:56:42.227Z,100837.13
2023-02-15T02:59:30.363Z,100839.81
2023-02-15T03:02:17.603Z,100845.78
2023-02-15T03:04:59.605Z,100851.28
2023-02-15T03:07:30.758Z,100850.13
2023-02-15T03:10:03.832Z,100851.47
2023-02-15T03:12:38.724Z,100853.25
2023-02-15T03:15:22.582Z,100852.69
2023-02-15T03:17:57.834Z,100852.84
2023-02-15T03:20:32.302Z,100849.69
2023-02-15T03:23:10.705Z,100855.41
2023-02-15T03:25:47.682Z,100852.25
2023-02-15T03:28:22.194Z,100859.22
2023-02-15T03:30:55.018Z,100870.72
2023-02-15T03:33:25.534Z,100868.50
2023-02-15T03:36:23.694Z,100878.41
2023-02-15T03:39:14.497Z,100871.06
2023-02-15T03:41:58.567Z,100871.69
2023-02-15T03:44:33.125Z,100875.47
2023-02-15T03:47:09.870Z,100874.28
2023-02-15T03:49:59.241Z,100875.84
2023-02-15T03:52:29.422Z,100867.34
2023-02-15T03:54:57.471Z,100870.91
2023-02-15T03:57:48.554Z,100878.06
2023-02-15T04:00:44.464Z,100884.81
2023-02-15T04:03:24.896Z,100893.72
2023-02-15T04:05:52.524Z,100887.16
2023-02-15T04:08:20.118Z,100888.16
2023-02-15T04:10:53.606Z,100891.50
2023-02-15T04:13:23.975Z,100889.53
2023-02-15T04:16:08.156Z,100888.56
2023-02-15T04:19:03.750Z,100884.78
2023-02-15T04:21:50.610Z,100884.00
2023-02-15T04:24:37.973Z,100898.66
2023-02-15T04:27:06.842Z,100899.84
2023-02-15T04:29:34.605Z,100897.25
2023-02-15T04:32:03.574Z,100898.84
2023-02-15T04:34:31.053Z,100895.28
2023-02-15T04:36:58.568Z,100893.13
2023-02-15T04:39:26.015Z,100899.47
2023-02-15T04:41:53.481Z,100905.00
2023-02-15T04:44:20.885Z,100906.19
2023-02-15T04:46:48.371Z,100912.91
2023-02-15T04:49:16.538Z,100907.78
2023-02-15T04:51:43.977Z,100910.34
2023-02-15T04:54:11.512Z,100915.50
2023-02-15T04:56:39.985Z,100914.53
2023-02-15T04:59:08.038Z,100931.75
2023-02-15T05:01:35.522Z,100929.19
2023-02-15T05:04:03.636Z,100935.31
2023-02-15T05:06:31.298Z,100937.50
2023-02-15T05:09:00.269Z,100933.16
2023-02-15T05:11:29.176Z,100930.56
2023-02-15T05:13:56.757Z,100940.28
2023-02-15T05:16:24.448Z,100933.53
2023-02-15T05:18:52.046Z,100936.50
2023-02-15T05:21:22.666Z,100941.03
2023-02-15T05:23:50.149Z,100945.00
2023-02-15T05:26:43.031Z,100935.50
2023-02-15T05:29:11.418Z,100942.47
2023-02-15T05:31:39.806Z,100962.47
2023-02-15T05:34:07.504Z,100969.00
2023-02-15T05:36:34.924Z,100967.44
2023-02-15T05:39:02.307Z,100972.19
2023-02-15T05:41:30.076Z,100972.78
2023-02-15T05:43:57.894Z,100976.75
2023-02-15T05:46:25.429Z,100981.09
2023-02-15T05:48:52.875Z,100981.50
2023-02-15T05:51:20.312Z,100982.69
2023-02-15T05:53:47.897Z,100985.28
2023-02-15T05:56:15.501Z,100991.81
2023-02-15T05:58:44.002Z,100994.59
2023-02-15T06:01:14.642Z,100998.56
2023-02-15T06:03:42.647Z,101003.50
2023-02-15T06:06:10.518Z,101011.59
2023-02-15T06:08:39.711Z,101006.22
2023-02-15T06:11:07.934Z,101012.34
2023-02-15T06:13:38.590Z,101005.72
2023-02-15T06:16:07.814Z,101001.69
2023-02-15T06:18:36.756Z,101008.63
2023-02-15T06:21:04.541Z,101007.91
2023-02-15T06:23:32.537Z,101012.31
2023-02-15T06:26:00.080Z,101019.25
2023-02-15T06:28:27.694Z,101019.00
2023-02-15T06:30:55.747Z,101019.25
2023-02-15T06:33:23.590Z,101016.16
2023-02-15T06:35:51.094Z,101021.13
2023-02-15T06:38:18.619Z,101021.03
2023-02-15T06:40:46.089Z,101027.56
2023-02-15T06:43:13.527Z,101020.28
2023-02-15T06:45:42.064Z,101016.75
2023-02-15T06:48:09.627Z,101020.00
2023-02-15T06:50:37.147Z,101019.63
2023-02-15T06:53:04.842Z,101017.19
2023-02-15T06:55:32.414Z,101014.91
2023-02-15T06:57:59.833Z,101013.81
2023-02-15T07:00:27.354Z,101014.03
2023-02-15T07:02:59.182Z,101018.81
2023-02-15T07:05:32.265Z,101013.50
2023-02-15T07:08:01.411Z,101016.34
2023-02-15T07:10:31.784Z,101017.91
2023-02-15T07:12:59.325Z,101030.44
2023-02-15T07:15:26.784Z,101028.41
2023-02-15T07:17:54.296Z,101026.75
2023-02-15T07:20:24.082Z,101025.16
2023-02-15T07:22:52.391Z,101024.91
2023-02-15T07:25:20.228Z,101021.56
2023-02-15T07:27:47.999Z,101023.69
2023-02-15T07:30:18.347Z,101022.44
2023-02-15T07:33:05.773Z,101026.19
2023-02-15T07:35:34.767Z,101023.69
2023-02-15T07:38:02.742Z,101028.84
2023-02-15T07:40:30.193Z,101020.41
2023-02-15T07:43:00.196Z,101025.41
2023-02-15T07:45:28.187Z,101021.88
2023-02-15T07:47:55.913Z,101029.22
2023-02-15T07:50:23.473Z,101030.03
2023-02-15T07:52:50.957Z,101028.88
2023-02-15T07:55:19.561Z,101029.06
2023-02-15T07:57:49.459Z,101022.22
2023-02-15T08:00:22.490Z,101030.25
2023-02-15T08:03:13.821Z,101025.50
2023-02-15T08:05:43.988Z,101027.78
2023-02-15T08:08:30.695Z,101029.56
2023-02-15T08:11:22.592Z,101018.28
2023-02-15T08:14:00.508Z,101022.25
2023-02-15T08:16:42.597Z,101025.25
2023-02-15T08:19:11.437Z,101031.47
2023-02-15T08:21:42.594Z,101029.44
2023-02-15T08:24:12.686Z,101028.19
2023-02-15T08:26:42.390Z,101024.53
2023-02-15T08:29:11.006Z,101031.84
2023-02-15T08:31:39.471Z,101027.72
2023-02-15T08:34:07.723Z,101024.59
2023-02-15T08:36:35.473Z,101022.22
2023-02-15T08:39:06.046Z,101021.94
2023-02-15T08:41:36.624Z,101027.94
2023-02-15T08:44:07.740Z,101026.44
2023-02-15T08:46:38.721Z,101030.50
2023-02-15T08:49:06.682Z,101029.84
2023-02-15T08:51:37.899Z,101027.13
2023-02-15T08:54:09.542Z,101031.44
2023-02-15T08:56:40.358Z,101029.16
2023-02-15T08:59:17.383Z,101034.84
2023-02-15T09:01:46.242Z,101040.50
2023-02-15T09:04:14.213Z,101029.50
2023-02-15T09:06:46.407Z,101037.53
2023-02-15T09:09:16.853Z,101032.53
2023-02-15T09:11:47.693Z,101030.63
2023-02-15T09:14:18.755Z,101030.78
2023-02-15T09:16:49.831Z,101026.72
2023-02-15T09:19:19.477Z,101019.56
2023-02-15T09:21:47.755Z,101020.03
2023-02-15T09:24:18.197Z,101017.53
2023-02-15T09:26:49.670Z,101015.72
2023-02-15T09:29:19.669Z,101016.97
2023-02-15T09:31:51.094Z,101025.22
2023-02-15T09:34:22.905Z,101022.84
2023-02-15T09:36:52.085Z,101015.09
2023-02-15T09:39:26.573Z,101013.28
2023-02-15T09:42:13.185Z,101011.47
2023-02-15T09:45:05.319Z,101006.25
2023-02-15T09:47:54.440Z,100999.94
2023-02-15T09:51:03.948Z,101000.72
2023-02-15T09:53:53.040Z,101000.41
2023-02-15T09:56:29.550Z,101008.75
2023-02-15T09:59:57.022Z,100995.22
2023-02-15T10:02:43.077Z,100995.41
2023-02-15T10:05:47.933Z,100995.28
2023-02-15T10:08:54.301Z,100990.59
2023-02-15T10:11:43.020Z,100987.00
2023-02-15T10:14:38.753Z,100985.97
2023-02-15T10:17:15.437Z,100982.50
2023-02-15T10:19:55.256Z,100977.97
2023-02-15T10:23:29.927Z,100977.31
2023-02-15T10:26:15.024Z,100969.03
2023-02-15T10:28:58.601Z,100970.34
2023-02-15T10:31:51.900Z,100971.19
2023-02-15T10:34:40.605Z,100967.16
2023-02-15T10:37:54.424Z,100958.75
2023-02-15T10:40:34.051Z,100951.75
2023-02-15T10:43:49.712Z,100958.56
2023-02-15T10:46:38.798Z,100955.56
2023-02-15T10:49:27.470Z,100954.34
2023-02-15T10:51:57.869Z,100953.50
2023-02-15T10:54:42.140Z,100949.84
2023-02-15T10:57:56.330Z,100942.88
2023-02-15T11:01:03.339Z,100947.88
2023-02-15T11:03:59.710Z,100943.53
2023-02-15T11:06:29.080Z,100941.53
2023-02-15T11:09:04.006Z,100936.53
2023-02-15T11:11:46.081Z,100936.53
2023-02-15T11:14:55.498Z,100932.41
2023-02-15T11:17:51.693Z,100924.50
2023-02-15T11:20:33.512Z,100921.88
2023-02-15T11:23:03.278Z,100919.91
2023-02-15T11:25:35.275Z,100910.72
2023-02-15T11:28:11.390Z,100904.00
2023-02-15T11:30:55.535Z,100908.16
2023-02-15T11:33:36.369Z,100901.91
2023-02-15T11:36:19.215Z,100897.22
2023-02-15T11:38:52.273Z,100899.50
2023-02-15T11:41:29.741Z,100904.91
2023-02-15T11:44:12.303Z,100897.03
2023-02-15T11:46:40.172Z,100889.03
2023-02-15T11:49:27.121Z,100892.53
2023-02-15T11:51:57.076Z,100879.53
2023-02-15T11:54:36.644Z,100878.97
2023-02-15T11:57:33.872Z,100872.69
2023-02-15T12:00:27.301Z,100878.00
2023-02-15T12:03:01.329Z,100869.97
2023-02-15T12:05:29.321Z,100865.09
2023-02-15T12:08:10.228Z,100865.53
2023-02-15T12:10:50.120Z,100872.28
2023-02-15T12:13:20.430Z,100867.03
2023-02-15T12:15:52.648Z,100868.66
2023-02-15T12:18:48.458Z,100873.22
2023-02-15T12:21:27.614Z,100863.16
2023-02-15T12:24:03.755Z,100860.63
2023-02-15T12:26:36.328Z,100863.22
2023-02-15T12:29:29.231Z,100851.06
2023-02-15T12:31:57.206Z,100855.56
2023-02-15T12:34:44.748Z,100846.31
2023-02-15T12:37:35.630Z,100852.09
2023-02-15T12:40:24.873Z,100852.97
2023-02-15T12:42:52.364Z,100848.97
2023-02-15T12:45:33.350Z,100848.34
2023-02-15T12:48:21.588Z,100845.84
2023-02-15T12:50:55.096Z,100842.25
2023-02-15T12:53:34.555Z,100840.75
2023-02-15T12:56:08.139Z,100846.78
2023-02-15T12:58:41.088Z,100845.19
2023-02-15T13:01:22.308Z,100839.03
2023-02-15T13:04:05.831Z,100838.13
2023-02-15T13:06:36.814Z,100844.34
2023-02-15T13:09:21.875Z,100838.97
2023-02-15T13:11:49.510Z,100842.81
2023-02-15T13:14:29.907Z,100838.63
2023-02-15T13:17:02.930Z,100835.56
2023-02-15T13:19:43.595Z,100833.88
2023-02-15T13:22:36.688Z,100838.03
2023-02-15T13:25:23.953Z,100836.09
2023-02-15T13:27:59.330Z,100832.44
2023-02-15T13:30:36.223Z,100828.09
2023-02-15T13:33:33.192Z,100826.72
2023-02-15T13:36:21.689Z,100823.63
2023-02-15T13:39:35.430Z,100829.44
2023-02-15T13:42:07.349Z,100821.84
2023-02-15T13:44:40.863Z,100816.22
2023-02-15T13:47:26.450Z,100817.97
2023-02-15T13:50:33.572Z,100816.69
2023-02-15T13:53:40.562Z,100816.72
2023-02-15T13:56:22.810Z,100816.41
2023-02-15T13:59:30.008Z,100808.53
2023-02-15T14:02:14.781Z,100806.97
2023-02-15T14:05:26.971Z,100807.69
2023-02-15T14:08:06.008Z,100811.44
2023-02-15T14:11:09.301Z,100812.84
2023-02-15T14:13:48.722Z,100803.81
2023-02-15T14:17:07.287Z,100812.41
2023-02-15T14:19:58.664Z,100814.69
2023-02-15T14:22:47.427Z,100811.75
2023-02-15T14:25:31.498Z,100804.44
2023-02-15T14:28:18.549Z,100806.19
2023-02-15T14:30:52.768Z,100809.38
2023-02-15T14:33:43.811Z,100806.81
2023-02-15T14:36:20.515Z,100809.28
2023-02-15T14:39:35.045Z,100803.13
2023-02-15T14:42:42.158Z,100810.38
2023-02-15T14:45:56.545Z,100814.59
2023-02-15T14:48:43.249Z,100808.91
2023-02-15T14:51:11.299Z,100819.47
2023-02-15T14:53:40.924Z,100809.03
2023-02-15T14:56:15.276Z,100808.53
2023-02-15T14:58:54.888Z,100813.34
2023-02-15T15:01:34.592Z,100808.50
2023-02-15T15:04:23.259Z,100808.19
2023-02-15T15:07:24.174Z,100801.78
2023-02-15T15:10:27.616Z,100805.94
2023-02-15T15:12:57.779Z,100807.09
2023-02-15T15:15:31.437Z,100809.56
2023-02-15T15:18:08.991Z,100810.09
2023-02-15T15:20:52.725Z,100809.56
2023-02-15T15:23:20.162Z,100813.34
2023-02-15T15:26:22.447Z,100813.44
2023-02-15T15:28:50.211Z,100815.06
2023-02-15T15:31:21.758Z,100811.50
2023-02-15T15:34:18.583Z,100796.50
2023-02-15T15:37:10.195Z,100798.72
2023-02-15T15:40:08.151Z,100799.78
2023-02-15T15:43:10.286Z,100806.00
2023-02-15T15:46:19.044Z,100805.56
2023-02-15T15:48:46.818Z,100807.94
2023-02-15T15:51:29.517Z,100805.38
2023-02-15T15:53:58.022Z,100814.84
2023-02-15T15:56:32.537Z,100819.13
2023-02-15T15:59:07.289Z,100812.59
2023-02-15T16:01:53.561Z,100807.59
2023-02-15T16:04:35.180Z,100818.22
2023-02-15T16:07:35.208Z,100811.97
2023-02-15T16:10:18.848Z,100816.44
2023-02-15T16:12:52.915Z,100822.47
2023-02-15T16:15:37.957Z,100822.75
2023-02-15T16:18:27.645Z,100827.91
2023-02-15T16:21:03.587Z,100824.44
2023-02-15T16:23:39.916Z,100824.06
2023-02-15T16:26:48.001Z,100825.16
2023-02-15T16:29:18.431Z,100823.75
2023-02-15T16:32:07.236Z,100822.50
2023-02-15T16:34:35.870Z,100823.38
2023-02-15T16:37:18.991Z,100820.72
2023-02-15T16:39:50.211Z,100822.16
2023-02-15T16:42:21.134Z,100821.72
2023-02-15T16:45:18.933Z,100821.44
2023-02-15T16:47:53.497Z,100823.63
2023-02-15T16:50:34.484Z,100822.13
2023-02-15T16:53:08.328Z,100818.53
2023-02-15T16:55:44.251Z,100827.00
2023-02-15T16:58:18.946Z,100821.28
2023-02-15T17:00:47.752Z,100824.19
2023-02-15T17:03:15.342Z,100825.00
2023-02-15T17:05:50.943Z,100820.06
2023-02-15T17:08:39.836Z,100826.38
2023-02-15T17:11:24.992Z,100830.78
2023-02-15T17:14:07.716Z,100824.00
2023-02-15T17:16:38.665Z,100827.41
2023-02-15T17:19:27.532Z,100831.31
2023-02-15T17:22:04.352Z,100834.75
2023-02-15T17:24:46.465Z,100834.22
2023-02-15T17:27:23.481Z,100837.09
2023-02-15T17:30:00.465Z,100841.28
2023-02-15T17:32:35.381Z,100834.47
2023-02-15T17:35:09.535Z,100838.41
2023-02-15T17:37:45.461Z,100842.56
2023-02-15T17:40:31.623Z,100839.66
2023-02-15T17:43:19.138Z,100841.41
2023-02-15T17:45:51.606Z,100853.38
2023-02-15T17:48:35.743Z,100853.06
2023-02-15T17:51:06.839Z,100854.09
2023-02-15T17:53:36.693Z,100858.00
2023-02-15T17:56:10.942Z,100858.72
2023-02-15T17:58:39.407Z,100866.69
2023-02-15T18:01:34.123Z,100872.84
2023-02-15T18:04:20.821Z,100872.50
2023-02-15T18:07:07.805Z,100877.88
2023-02-15T18:09:54.031Z,100888.69
2023-02-15T18:12:25.028Z,100885.94
2023-02-15T18:15:06.177Z,100885.31
2023-02-15T18:17:49.112Z,100877.22
2023-02-15T18:20:30.117Z,100875.19
2023-02-15T18:22:58.206Z,100879.13
2023-02-15T18:25:27.824Z,100869.22
2023-02-15T18:27:58.906Z,100878.03
2023-02-15T18:30:27.189Z,100875.06
2023-02-15T18:33:01.300Z,100871.78
2023-02-15T18:35:33.961Z,100869.81
2023-02-15T18:38:05.465Z,100885.22
2023-02-15T18:40:33.101Z,100879.06
2023-02-15T18:43:01.396Z,100884.16
2023-02-15T18:45:36.216Z,100890.09
2023-02-15T18:48:04.694Z,100891.06
2023-02-15T18:50:36.581Z,100891.06
2023-02-15T18:53:13.267Z,100888.94
2023-02-15T18:55:40.758Z,100895.31
2023-02-15T18:58:18.447Z,100890.75
2023-02-15T19:00:50.384Z,100892.69
2023-02-15T19:03:19.238Z,100897.59
2023-02-15T19:05:48.741Z,100898.69
2023-02-15T19:08:21.980Z,100892.94
2023-02-15T19:10:53.447Z,100900.91
2023-02-15T19:13:22.745Z,100892.94
2023-02-15T19:15:52.981Z,100900.91
2023-02-15T19:18:21.653Z,100898.47
2023-02-15T19:20:50.907Z,100902.25
2023-02-15T19:23:22.672Z,100901.00
2023-02-15T19:25:53.157Z,100905.94
2023-02-15T19:28:32.807Z,100904.13
2023-02-15T19:31:00.438Z,100911.78
2023-02-15T19:33:28.498Z,100913.75
2023-02-15T19:35:57.895Z,100904.44
2023-02-15T19:38:36.589Z,100907.00
2023-02-15T19:41:09.730Z,100910.97
2023-02-15T19:43:37.761Z,100913.66
2023-02-15T19:46:05.745Z,100916.16
2023-02-15T19:48:36.597Z,100917.19
2023-02-15T19:51:06.150Z,100914.78
2023-02-15T19:53:34.089Z,100928.94
2023-02-15T19:56:03.967Z,100919.66
2023-02-15T19:58:34.508Z,100919.59
2023-02-15T20:01:04.373Z,100920.44
2023-02-15T20:03:32.282Z,100924.13
2023-02-15T20:06:01.261Z,100930.03
2023-02-15T20:08:30.800Z,100931.31
2023-02-15T20:10:59.506Z,100931.44
2023-02-15T20:13:28.808Z,100929.97
2023-02-15T20:16:16.322Z,100927.72
2023-02-15T20:18:46.516Z,100922.34
2023-02-15T20:21:17.575Z,100924.03
2023-02-15T20:23:46.698Z,100924.03
2023-02-15T20:26:18.490Z,100924.09
2023-02-15T20:28:47.230Z,100925.13
2023-02-15T20:31:18.728Z,100923.00
2023-02-15T20:33:50.490Z,100922.66
2023-02-15T20:36:21.123Z,100925.78
2023-02-15T20:38:48.944Z,100924.84
2023-02-15T20:41:36.032Z,100921.06
2023-02-15T20:44:28.524Z,100922.88
2023-02-15T20:46:59.291Z,100929.09
2023-02-15T20:49:29.478Z,100932.94
2023-02-15T20:51:58.445Z,100929.38
2023-02-15T20:54:51.501Z,100929.03
2023-02-15T20:57:40.065Z,100925.50
2023-02-15T21:00:26.202Z,100928.19
2023-02-15T21:02:59.130Z,100921.06
2023-02-15T21:05:30.911Z,100917.88
2023-02-15T21:07:58.534Z,100918.00
2023-02-15T21:10:32.626Z,100924.31
2023-02-15T21:13:01.835Z,100918.75
2023-02-15T21:15:34.340Z,100916.84
2023-02-15T21:18:27.237Z,100916.13
2023-02-15T21:21:03.869Z,100916.81
2023-02-15T21:23:40.610Z,100923.91
2023-02-15T21:26:19.552Z,100920.97
2023-02-15T21:28:48.258Z,100923.72
2023-02-15T21:31:24.578Z,100919.91
2023-02-15T21:33:52.553Z,100924.88
2023-02-15T21:36:24.362Z,100928.00
2023-02-15T21:38:53.820Z,100923.25
2023-02-15T21:41:42.693Z,100924.47
2023-02-15T21:44:40.356Z,100924.22
2023-02-15T21:47:38.326Z,100930.44
2023-02-15T21:50:27.404Z,100927.19
2023-02-15T21:52:55.272Z,100928.28
2023-02-15T21:55:22.868Z,100930.88
2023-02-15T21:57:50.513Z,100927.53
2023-02-15T22:00:21.699Z,100930.25
2023-02-15T22:02:54.263Z,100928.84
2023-02-15T22:05:27.420Z,100926.88
2023-02-15T22:07:55.651Z,100929.66
2023-02-15T22:10:24.454Z,100934.19
2023-02-15T22:12:53.138Z,100932.72
2023-02-15T22:15:23.649Z,100936.47
2023-02-15T22:17:53.023Z,100936.75
2023-02-15T22:20:23.797Z,100940.81
2023-02-15T22:22:53.162Z,100935.81
2023-02-15T22:25:26.449Z,100935.91
2023-02-15T22:27:55.670Z,100937.00
2023-02-15T22:30:29.392Z,100934.31
2023-02-15T22:32:59.019Z,100936.19
2023-02-15T22:35:29.110Z,100942.22
2023-02-15T22:37:56.740Z,100943.53
2023-02-15T22:40:32.699Z,100949.88
2023-02-15T22:43:05.851Z,100945.97
2023-02-15T22:45:36.302Z,100945.56
2023-02-15T22:48:04.306Z,100945.63
2023-02-15T22:50:34.792Z,100952.47
2023-02-15T22:53:06.383Z,100955.06
2023-02-15T22:55:38.041Z,100952.91
2023-02-15T22:58:06.354Z,100958.06
2023-02-15T23:00:40.567Z,100953.31
2023-02-15T23:03:24.804Z,100953.41
2023-02-15T23:05:53.252Z,100955.56
2023-02-15T23:08:21.387Z,100957.84
2023-02-15T23:10:56.216Z,100960.78
2023-02-15T23:13:30.275Z,100963.84
2023-02-15T23:16:04.311Z,100949.22
2023-02-15T23:18:39.445Z,100950.66
2023-02-15T23:21:22.987Z,100951.09
2023-02-15T23:23:56.508Z,100955.41
2023-02-15T23:26:31.255Z,100956.63
2023-02-15T23:29:01.443Z,100955.84
2023-02-15T23:31:35.046Z,100961.66
2023-02-15T23:34:13.128Z,100961.81
2023-02-15T23:36:40.622Z,100958.84
2023-02-15T23:39:41.728Z,100957.44
2023-02-15T23:42:30.752Z,100961.81
2023-02-15T23:44:58.933Z,100953.59
2023-02-15T23:47:55.013Z,100962.47
2023-02-15T23:50:25.568Z,100956.66
2023-02-15T23:52:55.405Z,100949.28
2023-02-15T23:55:25.589Z,100950.28
2023-02-15T23:57:57.047Z,100956.41
